Time,TemperatureF,DewpointF,PressureIn,WindDirection,WindDirectionDegrees,WindSpeedMPH,WindSpeedGustMPH,Humidity,HourlyPrecipIn,Conditions,Clouds,dailyrainin,SoftwareType,DateUTC
2013-09-27 00:00:00,51.0,49.9,30.13,ENE,60,0.0,0.0,96,0.00,,---,0.00,VWS V14.01,2013-09-27 04:00:00,
2013-09-27 00:01:00,51.0,49.9,30.13,ENE,60,0.0,0.0,96,0.00,,---,0.00,VWS V14.01,2013-09-27 04:01:00,
2013-09-27 00:06:00,50.8,49.7,30.13,ENE,60,0.0,0.0,96,0.00,,---,0.00,VWS V14.01,2013-09-27 04:06:00,
2013-09-27 00:11:00,50.7,49.6,30.13,ENE,60,0.0,0.0,96,0.00,,---,0.00,VWS V14.01,2013-09-27 04:11:00,
2013-09-27 00:16:00,50.5,49.4,30.13,ENE,59,0.0,0.0,96,0.00,,---,0.00,VWS V14.01,2013-09-27 04:16:00,
2013-09-27 00:21:00,50.3,49.2,30.13,ENE,59,0.0,0.0,96,0.00,,---,0.00,VWS V14.01,2013-09-27 04:21:00,
2013-09-27 00:26:00,50.3,49.2,30.13,ENE,59,0.0,0.0,96,0.00,,---,0.00,VWS V14.01,2013-09-27 04:26:00,
2013-09-27 00:30:00,50.1,49.0,30.13,ENE,60,0.0,0.0,96,0.00,,---,0.00,VWS V14.01,2013-09-27 04:30:00,
2013-09-27 00:31:00,50.1,49.0,30.13,ENE,60,0.0,0.0,96,0.00,,---,0.00,VWS V14.01,2013-09-27 04:31:00,
2013-09-27 00:36:00,50.0,48.9,30.13,ENE,60,0.0,0.0,96,0.00,,---,0.00,VWS V14.01,2013-09-27 04:36:00,
2013-09-27 00:41:00,49.9,48.8,30.13,ENE,60,0.0,0.0,96,0.00,,---,0.00,VWS V14.01,2013-09-27 04:41:00,
2013-09-27 00:46:00,49.7,48.6,30.13,ENE,59,0.0,0.0,96,0.00,,---,0.00,VWS V14.01,2013-09-27 04:46:00,
2013-09-27 00:51:00,49.7,48.6,30.13,ENE,59,0.0,0.0,96,0.00,,---,0.00,VWS V14.01,2013-09-27 04:51:00,
2013-09-27 00:56:00,49.6,48.5,30.13,ENE,60,0.0,0.0,96,0.00,,---,0.00,VWS V14.01,2013-09-27 04:56:00,
2013-09-27 01:00:00,49.4,48.3,30.13,ENE,59,0.0,0.0,96,0.00,,---,0.00,VWS V14.01,2013-09-27 05:00:00,
2013-09-27 01:01:00,49.4,48.3,30.13,ENE,61,0.0,0.0,96,0.00,,---,0.00,VWS V14.01,2013-09-27 05:01:00,
2013-09-27 01:06:00,49.4,48.3,30.13,ENE,60,0.0,0.0,96,0.00,,---,0.00,VWS V14.01,2013-09-27 05:06:00,
2013-09-27 01:11:00,49.3,48.2,30.13,ENE,61,0.0,0.0,96,0.00,,---,0.00,VWS V14.01,2013-09-27 05:11:00,
2013-09-27 01:16:00,49.1,48.0,30.14,ENE,59,0.0,0.0,96,0.00,,---,0.00,VWS V14.01,2013-09-27 05:16:00,
2013-09-27 01:21:00,48.9,47.8,30.14,ENE,59,0.0,0.0,96,0.00,,---,0.00,VWS V14.01,2013-09-27 05:21:00,
2013-09-27 01:26:00,48.8,47.7,30.14,ENE,60,0.0,0.0,96,0.00,,---,0.00,VWS V14.01,2013-09-27 05:26:00,
2013-09-27 01:30:00,48.7,47.6,30.14,ENE,60,0.0,0.0,96,0.00,,---,0.00,VWS V14.01,2013-09-27 05:30:00,
2013-09-27 01:31:00,48.7,47.6,30.14,ENE,61,0.0,0.0,96,0.00,,---,0.00,VWS V14.01,2013-09-27 05:31:00,
2013-09-27 01:36:00,48.6,47.5,30.14,ENE,61,0.0,0.0,96,0.00,,---,0.00,VWS V14.01,2013-09-27 05:36:00,
2013-09-27 01:41:00,48.5,47.4,30.14,ENE,60,0.0,0.0,96,0.00,,---,0.00,VWS V14.01,2013-09-27 05:41:00,
2013-09-27 01:46:00,48.6,47.8,30.15,ENE,60,0.0,0.0,97,0.00,,---,0.00,VWS V14.01,2013-09-27 05:46:00,
2013-09-27 01:51:00,48.6,47.8,30.15,ENE,59,0.0,0.0,97,0.00,,---,0.00,VWS V14.01,2013-09-27 05:51:00,
2013-09-27 01:56:00,48.6,47.8,30.14,ENE,59,0.0,0.0,97,0.00,,---,0.00,VWS V14.01,2013-09-27 05:56:00,
2013-09-27 02:00:00,48.7,47.9,30.15,ENE,60,0.0,0.0,97,0.00,,---,0.00,VWS V14.01,2013-09-27 06:00:00,
2013-09-27 02:01:00,48.7,47.9,30.15,ENE,59,0.0,0.0,97,0.00,,---,0.00,VWS V14.01,2013-09-27 06:01:00,
2013-09-27 02:06:00,48.6,47.8,30.15,ENE,60,0.0,0.0,97,0.00,,---,0.00,VWS V14.01,2013-09-27 06:06:00,
2013-09-27 02:11:00,48.4,47.6,30.15,ENE,59,0.0,0.0,97,0.00,,---,0.00,VWS V14.01,2013-09-27 06:11:00,
2013-09-27 02:16:00,48.4,47.6,30.15,ENE,59,0.0,0.0,97,0.00,,---,0.00,VWS V14.01,2013-09-27 06:16:00,
2013-09-27 02:21:00,48.5,47.7,30.15,ENE,60,0.0,0.0,97,0.00,,---,0.00,VWS V14.01,2013-09-27 06:21:00,
2013-09-27 02:26:00,48.4,47.6,30.14,ENE,59,0.0,0.0,97,0.00,,---,0.00,VWS V14.01,2013-09-27 06:26:00,
2013-09-27 02:30:00,48.1,47.3,30.15,ENE,59,0.0,0.0,97,0.00,,---,0.00,VWS V14.01,2013-09-27 06:30:00,
2013-09-27 02:31:00,48.1,47.3,30.15,ENE,59,0.0,0.0,97,0.00,,---,0.00,VWS V14.01,2013-09-27 06:31:00,
2013-09-27 02:36:00,48.0,47.2,30.15,ENE,60,0.0,0.0,97,0.00,,---,0.00,VWS V14.01,2013-09-27 06:36:00,
2013-09-27 02:41:00,47.9,47.1,30.14,ENE,60,0.0,0.0,97,0.00,,---,0.00,VWS V14.01,2013-09-27 06:41:00,
2013-09-27 02:46:00,47.8,47.0,30.14,ENE,60,0.0,0.0,97,0.00,,---,0.00,VWS V14.01,2013-09-27 06:46:00,
2013-09-27 02:51:00,47.7,46.9,30.14,ENE,59,0.0,0.0,97,0.00,,---,0.00,VWS V14.01,2013-09-27 06:51:00,
2013-09-27 02:56:00,47.6,46.8,30.14,ENE,59,0.0,0.0,97,0.00,,---,0.00,VWS V14.01,2013-09-27 06:56:00,
2013-09-27 03:00:00,47.5,46.7,30.15,ENE,60,0.0,0.0,97,0.00,,---,0.00,VWS V14.01,2013-09-27 07:00:00,
2013-09-27 03:01:00,47.5,46.7,30.15,ENE,59,0.0,0.0,97,0.00,,---,0.00,VWS V14.01,2013-09-27 07:01:00,
2013-09-27 03:06:00,47.4,46.6,30.15,ENE,60,0.0,0.0,97,0.00,,---,0.00,VWS V14.01,2013-09-27 07:06:00,
2013-09-27 03:11:00,47.2,46.4,30.15,ENE,59,0.0,0.0,97,0.00,,---,0.00,VWS V14.01,2013-09-27 07:11:00,
2013-09-27 03:16:00,47.2,46.4,30.15,ENE,60,0.0,0.0,97,0.00,,---,0.00,VWS V14.01,2013-09-27 07:16:00,
2013-09-27 03:21:00,47.0,46.2,30.15,ENE,61,0.0,0.0,97,0.00,,---,0.00,VWS V14.01,2013-09-27 07:21:00,
2013-09-27 03:26:00,46.9,46.1,30.15,ENE,61,0.0,0.0,97,0.00,,---,0.00,VWS V14.01,2013-09-27 07:26:00,
2013-09-27 03:30:00,46.9,46.1,30.15,ENE,61,0.0,0.0,97,0.00,,---,0.00,VWS V14.01,2013-09-27 07:30:00,
2013-09-27 03:31:00,46.8,46.0,30.15,ENE,60,0.0,0.0,97,0.00,,---,0.00,VWS V14.01,2013-09-27 07:31:00,
2013-09-27 03:36:00,46.9,46.1,30.15,ENE,60,0.0,0.0,97,0.00,,---,0.00,VWS V14.01,2013-09-27 07:36:00,
2013-09-27 03:41:00,46.8,46.0,30.15,ENE,61,0.0,0.0,97,0.00,,---,0.00,VWS V14.01,2013-09-27 07:41:00,
2013-09-27 03:46:00,46.8,46.0,30.15,ENE,61,0.0,0.0,97,0.00,,---,0.00,VWS V14.01,2013-09-27 07:46:00,
2013-09-27 03:49:00,46.8,46.0,30.15,ENE,61,0.0,0.0,97,0.00,,---,0.00,VWS V14.01,2013-09-27 07:49:00,
2013-09-27 03:54:00,46.7,45.9,30.15,ENE,61,0.0,0.0,97,0.00,,---,0.00,VWS V14.01,2013-09-27 07:54:00,
2013-09-27 03:59:00,46.7,45.9,30.15,ENE,61,0.0,0.0,97,0.00,,---,0.00,VWS V14.01,2013-09-27 07:59:00,
2013-09-27 04:00:00,46.6,45.8,30.15,ENE,61,0.0,0.0,97,0.00,,---,0.00,VWS V14.01,2013-09-27 08:00:00,
2013-09-27 04:04:00,46.6,45.8,30.16,ENE,60,0.0,0.0,97,0.00,,---,0.00,VWS V14.01,2013-09-27 08:04:00,
2013-09-27 04:09:00,46.5,45.7,30.16,ENE,61,0.0,0.0,97,0.00,,---,0.00,VWS V14.01,2013-09-27 08:09:00,
2013-09-27 04:14:00,46.5,45.7,30.16,ENE,60,0.0,0.0,97,0.00,,---,0.00,VWS V14.01,2013-09-27 08:14:00,
2013-09-27 04:19:00,46.6,45.8,30.16,ENE,61,0.0,0.0,97,0.00,,---,0.00,VWS V14.01,2013-09-27 08:19:00,
2013-09-27 04:24:00,46.7,46.2,30.16,ENE,60,0.0,0.0,98,0.00,,---,0.00,VWS V14.01,2013-09-27 08:24:00,
2013-09-27 04:29:00,46.7,46.2,30.16,ENE,61,0.0,0.0,98,0.00,,---,0.00,VWS V14.01,2013-09-27 08:29:00,
2013-09-27 04:30:00,46.7,45.9,30.16,ENE,60,0.0,0.0,97,0.00,,---,0.00,VWS V14.01,2013-09-27 08:30:00,
2013-09-27 04:34:00,46.8,46.3,30.16,ENE,61,0.0,0.0,98,0.00,,---,0.00,VWS V14.01,2013-09-27 08:34:00,
2013-09-27 04:39:00,46.9,46.4,30.16,ENE,61,0.0,0.0,98,0.00,,---,0.00,VWS V14.01,2013-09-27 08:39:00,
2013-09-27 04:44:00,46.9,46.4,30.16,ENE,60,0.0,0.0,98,0.00,,---,0.00,VWS V14.01,2013-09-27 08:44:00,
2013-09-27 04:49:00,47.1,46.6,30.16,ENE,60,0.0,0.0,98,0.00,,---,0.00,VWS V14.01,2013-09-27 08:49:00,
2013-09-27 04:54:00,47.1,46.3,30.16,ENE,59,0.0,0.0,97,0.00,,---,0.00,VWS V14.01,2013-09-27 08:54:00,
2013-09-27 04:59:00,46.9,46.1,30.16,ENE,61,0.0,0.0,97,0.00,,---,0.00,VWS V14.01,2013-09-27 08:59:00,
2013-09-27 05:00:00,46.9,46.1,30.17,ENE,60,0.0,0.0,97,0.00,,---,0.00,VWS V14.01,2013-09-27 09:00:00,
2013-09-27 05:04:00,46.9,46.1,30.17,ENE,61,0.0,0.0,97,0.00,,---,0.00,VWS V14.01,2013-09-27 09:04:00,
2013-09-27 05:09:00,46.7,45.9,30.17,ENE,61,0.0,0.0,97,0.00,,---,0.00,VWS V14.01,2013-09-27 09:09:00,
2013-09-27 05:14:00,46.7,45.9,30.17,ENE,61,0.0,0.0,97,0.00,,---,0.00,VWS V14.01,2013-09-27 09:14:00,
2013-09-27 05:19:00,46.7,46.2,30.17,ENE,61,0.0,0.0,98,0.00,,---,0.00,VWS V14.01,2013-09-27 09:19:00,
2013-09-27 05:24:00,46.7,45.9,30.17,ENE,61,0.0,0.0,97,0.00,,---,0.00,VWS V14.01,2013-09-27 09:24:00,
2013-09-27 05:29:00,46.6,45.8,30.17,ENE,61,0.0,0.0,97,0.00,,---,0.00,VWS V14.01,2013-09-27 09:29:00,
2013-09-27 05:30:00,46.5,45.7,30.17,ENE,61,0.0,0.0,97,0.00,,---,0.00,VWS V14.01,2013-09-27 09:30:00,
2013-09-27 05:34:00,46.5,46.0,30.17,ENE,61,0.0,0.0,98,0.00,,---,0.00,VWS V14.01,2013-09-27 09:34:00,
2013-09-27 05:39:00,46.6,46.1,30.18,ENE,61,0.0,0.0,98,0.00,,---,0.00,VWS V14.01,2013-09-27 09:39:00,
2013-09-27 05:44:00,46.5,46.0,30.18,ENE,60,0.0,0.0,98,0.00,,---,0.00,VWS V14.01,2013-09-27 09:44:00,
2013-09-27 05:49:00,46.4,45.9,30.18,ENE,61,0.0,0.0,98,0.00,,---,0.00,VWS V14.01,2013-09-27 09:49:00,
2013-09-27 05:54:00,46.3,45.5,30.18,ENE,61,0.0,0.0,97,0.00,,---,0.00,VWS V14.01,2013-09-27 09:54:00,
2013-09-27 05:59:00,46.3,45.8,30.18,ENE,61,0.0,0.0,98,0.00,,---,0.00,VWS V14.01,2013-09-27 09:59:00,
2013-09-27 06:00:00,46.2,45.7,30.18,ENE,61,0.0,0.0,98,0.00,,---,0.00,VWS V14.01,2013-09-27 10:00:00,
2013-09-27 06:04:00,46.2,45.7,30.19,ENE,61,0.0,0.0,98,0.00,,---,0.00,VWS V14.01,2013-09-27 10:04:00,
2013-09-27 06:09:00,46.1,45.6,30.19,ENE,61,0.0,0.0,98,0.00,,---,0.00,VWS V14.01,2013-09-27 10:09:00,
2013-09-27 06:14:00,46.1,45.6,30.19,ENE,61,0.0,0.0,98,0.00,,---,0.00,VWS V14.01,2013-09-27 10:14:00,
2013-09-27 06:19:00,46.0,45.5,30.19,ENE,61,0.0,0.0,98,0.00,,---,0.00,VWS V14.01,2013-09-27 10:19:00,
2013-09-27 06:24:00,46.0,45.5,30.19,ENE,61,0.0,0.0,98,0.00,,---,0.00,VWS V14.01,2013-09-27 10:24:00,
2013-09-27 06:29:00,46.1,45.6,30.19,ENE,61,0.0,0.0,98,0.00,,---,0.00,VWS V14.01,2013-09-27 10:29:00,
2013-09-27 06:30:00,46.1,45.6,30.19,ENE,61,0.0,0.0,98,0.00,,---,0.00,VWS V14.01,2013-09-27 10:30:00,
2013-09-27 06:34:00,46.2,45.7,30.19,ENE,61,0.0,0.0,98,0.00,,---,0.00,VWS V14.01,2013-09-27 10:34:00,
2013-09-27 06:39:00,46.3,45.8,30.19,ENE,61,0.0,0.0,98,0.00,,---,0.00,VWS V14.01,2013-09-27 10:39:00,
2013-09-27 06:44:00,46.3,45.8,30.19,ENE,61,0.0,0.0,98,0.00,,---,0.00,VWS V14.01,2013-09-27 10:44:00,
2013-09-27 06:49:00,46.5,46.0,30.20,ENE,61,0.0,0.0,98,0.00,,---,0.00,VWS V14.01,2013-09-27 10:49:00,
2013-09-27 06:54:00,46.7,46.2,30.20,ENE,61,0.0,0.0,98,0.00,,---,0.00,VWS V14.01,2013-09-27 10:54:00,
2013-09-27 06:59:00,46.9,46.4,30.20,ENE,61,0.0,0.0,98,0.00,,---,0.00,VWS V14.01,2013-09-27 10:59:00,
2013-09-27 07:00:00,47.0,46.5,30.20,ENE,60,0.0,0.0,98,0.00,,---,0.00,VWS V14.01,2013-09-27 11:00:00,
2013-09-27 07:04:00,47.1,46.6,30.20,ENE,60,0.0,0.0,98,0.00,,---,0.00,VWS V14.01,2013-09-27 11:04:00,
2013-09-27 07:09:00,47.3,46.8,30.20,ENE,61,0.0,0.0,98,0.00,,---,0.00,VWS V14.01,2013-09-27 11:09:00,
2013-09-27 07:14:00,47.4,46.9,30.21,ENE,61,0.0,0.0,98,0.00,,---,0.00,VWS V14.01,2013-09-27 11:14:00,
2013-09-27 07:19:00,47.7,47.2,30.21,ENE,60,0.0,0.0,98,0.00,,---,0.00,VWS V14.01,2013-09-27 11:19:00,
2013-09-27 07:24:00,47.9,47.4,30.21,ENE,59,0.0,0.0,98,0.00,,---,0.00,VWS V14.01,2013-09-27 11:24:00,
2013-09-27 07:29:00,48.1,47.6,30.21,ENE,60,0.0,0.0,98,0.00,,---,0.00,VWS V14.01,2013-09-27 11:29:00,
2013-09-27 07:30:00,48.2,47.7,30.21,ENE,60,0.0,0.0,98,0.00,,---,0.00,VWS V14.01,2013-09-27 11:30:00,
2013-09-27 07:34:00,48.4,47.9,30.21,ENE,59,0.0,0.0,98,0.00,,---,0.00,VWS V14.01,2013-09-27 11:34:00,
2013-09-27 07:39:00,48.6,48.1,30.22,ENE,59,0.0,0.0,98,0.00,,---,0.00,VWS V14.01,2013-09-27 11:39:00,
2013-09-27 07:44:00,48.8,48.3,30.22,ENE,59,0.0,0.0,98,0.00,,---,0.00,VWS V14.01,2013-09-27 11:44:00,
2013-09-27 07:49:00,49.1,48.6,30.22,ENE,60,0.0,0.0,98,0.00,,---,0.00,VWS V14.01,2013-09-27 11:49:00,
2013-09-27 07:54:00,49.3,48.8,30.22,ENE,60,0.0,0.0,98,0.00,,---,0.00,VWS V14.01,2013-09-27 11:54:00,
2013-09-27 07:59:00,49.6,49.1,30.22,ENE,60,0.0,0.0,98,0.00,,---,0.00,VWS V14.01,2013-09-27 11:59:00,
2013-09-27 08:00:00,49.7,49.2,30.22,ENE,60,0.0,0.0,98,0.00,,---,0.00,VWS V14.01,2013-09-27 12:00:00,
2013-09-27 08:04:00,49.9,49.4,30.22,ENE,60,0.0,0.0,98,0.00,,---,0.00,VWS V14.01,2013-09-27 12:04:00,
2013-09-27 08:09:00,50.2,49.7,30.22,ENE,60,0.0,0.0,98,0.00,,---,0.00,VWS V14.01,2013-09-27 12:09:00,
2013-09-27 08:14:00,50.5,50.0,30.23,ENE,59,0.0,0.0,98,0.00,,---,0.00,VWS V14.01,2013-09-27 12:14:00,
2013-09-27 08:19:00,50.8,50.3,30.23,ENE,59,0.0,0.0,98,0.00,,---,0.00,VWS V14.01,2013-09-27 12:19:00,
2013-09-27 08:24:00,51.1,50.6,30.23,ENE,59,0.0,0.0,98,0.00,,---,0.00,VWS V14.01,2013-09-27 12:24:00,
2013-09-27 08:29:00,51.3,50.8,30.23,ENE,60,0.0,0.0,98,0.00,,---,0.00,VWS V14.01,2013-09-27 12:29:00,
2013-09-27 08:30:00,51.4,50.9,30.23,ENE,60,0.0,0.0,98,0.00,,---,0.00,VWS V14.01,2013-09-27 12:30:00,
2013-09-27 08:34:00,51.5,51.0,30.23,ENE,59,0.0,0.0,98,0.00,,---,0.00,VWS V14.01,2013-09-27 12:34:00,
2013-09-27 08:39:00,51.8,51.3,30.23,ENE,60,0.0,0.0,98,0.00,,---,0.00,VWS V14.01,2013-09-27 12:39:00,
2013-09-27 08:44:00,51.9,51.4,30.23,ENE,59,0.0,0.0,98,0.00,,---,0.00,VWS V14.01,2013-09-27 12:44:00,
2013-09-27 08:49:00,52.1,51.5,30.23,ENE,59,0.0,0.0,98,0.00,,---,0.00,VWS V14.01,2013-09-27 12:49:00,
2013-09-27 08:54:00,52.3,51.8,30.23,ENE,60,0.0,0.0,98,0.00,,---,0.00,VWS V14.01,2013-09-27 12:54:00,
2013-09-27 08:59:00,52.6,52.0,30.23,ENE,60,0.0,0.0,98,0.00,,---,0.00,VWS V14.01,2013-09-27 12:59:00,
2013-09-27 09:00:00,52.7,52.2,30.23,ENE,59,0.0,0.0,98,0.00,,---,0.00,VWS V14.01,2013-09-27 13:00:00,
2013-09-27 09:04:00,52.8,52.2,30.23,ENE,60,0.0,0.0,98,0.00,,---,0.00,VWS V14.01,2013-09-27 13:04:00,
2013-09-27 09:09:00,53.1,52.5,30.23,ENE,60,0.0,0.0,98,0.00,,---,0.00,VWS V14.01,2013-09-27 13:09:00,
2013-09-27 09:14:00,53.5,52.7,30.24,ENE,60,0.0,0.0,97,0.00,,---,0.00,VWS V14.01,2013-09-27 13:14:00,
2013-09-27 09:19:00,54.0,52.6,30.24,ENE,60,0.0,0.0,95,0.00,,---,0.00,VWS V14.01,2013-09-27 13:19:00,
2013-09-27 09:24:00,54.7,52.4,30.24,ENE,60,0.0,0.0,92,0.00,,---,0.00,VWS V14.01,2013-09-27 13:24:00,
2013-09-27 09:29:00,55.4,52.2,30.24,ENE,61,0.0,0.0,89,0.00,,---,0.00,VWS V14.01,2013-09-27 13:29:00,
2013-09-27 09:30:00,55.7,52.2,30.24,ENE,61,0.0,0.0,88,0.00,,---,0.00,VWS V14.01,2013-09-27 13:30:00,
2013-09-27 09:34:00,56.0,51.9,30.24,ENE,62,0.0,0.0,86,0.00,,---,0.00,VWS V14.01,2013-09-27 13:34:00,
2013-09-27 09:39:00,56.4,52.0,30.24,ENE,64,1.0,2.0,85,0.00,,---,0.00,VWS V14.01,2013-09-27 13:39:00,
2013-09-27 09:44:00,56.7,52.2,30.24,ENE,59,0.0,2.0,85,0.00,,---,0.00,VWS V14.01,2013-09-27 13:44:00,
2013-09-27 09:49:00,56.9,52.1,30.24,ENE,60,0.0,2.0,84,0.00,,---,0.00,VWS V14.01,2013-09-27 13:49:00,
2013-09-27 09:54:00,57.2,52.4,30.24,ENE,60,0.0,2.0,84,0.00,,---,0.00,VWS V14.01,2013-09-27 13:54:00,
2013-09-27 09:59:00,57.5,52.4,30.24,ENE,59,0.0,2.0,83,0.00,,---,0.00,VWS V14.01,2013-09-27 13:59:00,
2013-09-27 10:00:00,57.6,52.5,30.24,ENE,60,0.0,2.0,83,0.00,,---,0.00,VWS V14.01,2013-09-27 14:00:00,
2013-09-27 10:04:00,57.8,52.7,30.24,ESE,112,0.0,1.0,83,0.00,,---,0.00,VWS V14.01,2013-09-27 14:04:00,
2013-09-27 10:09:00,58.1,52.6,30.24,ESE,111,0.0,1.0,82,0.00,,---,0.00,VWS V14.01,2013-09-27 14:09:00,
2013-09-27 10:14:00,58.5,52.7,30.24,ESE,111,0.0,1.0,81,0.00,,---,0.00,VWS V14.01,2013-09-27 14:14:00,
2013-09-27 10:19:00,58.7,52.9,30.24,ESE,112,0.0,1.0,81,0.00,,---,0.00,VWS V14.01,2013-09-27 14:19:00,
2013-09-27 10:24:00,59.0,52.8,30.24,ESE,111,0.0,1.0,80,0.00,,---,0.00,VWS V14.01,2013-09-27 14:24:00,
2013-09-27 10:29:00,59.3,53.1,30.24,ESE,113,0.0,1.0,80,0.00,,---,0.00,VWS V14.01,2013-09-27 14:29:00,
2013-09-27 10:30:00,59.5,53.0,30.24,ESE,113,0.0,1.0,79,0.00,,---,0.00,VWS V14.01,2013-09-27 14:30:00,
2013-09-27 10:34:00,59.6,53.4,30.24,ESE,113,0.0,0.0,80,0.00,,---,0.00,VWS V14.01,2013-09-27 14:34:00,
2013-09-27 10:39:00,59.9,53.4,30.24,ESE,111,0.0,0.0,79,0.00,,---,0.00,VWS V14.01,2013-09-27 14:39:00,
2013-09-27 10:44:00,60.3,53.8,30.24,East,101,0.0,1.0,79,0.00,,---,0.00,VWS V14.01,2013-09-27 14:44:00,
2013-09-27 10:49:00,60.8,53.5,30.24,East,80,0.0,1.0,77,0.00,,---,0.00,VWS V14.01,2013-09-27 14:49:00,
2013-09-27 10:54:00,61.4,53.8,30.24,NE,53,0.0,1.0,76,0.00,,---,0.00,VWS V14.01,2013-09-27 14:54:00,
2013-09-27 10:59:00,61.8,54.2,30.24,ENE,68,0.0,2.0,76,0.00,,---,0.00,VWS V14.01,2013-09-27 14:59:00,
2013-09-27 11:00:00,62.0,54.0,30.24,ENE,68,0.0,2.0,75,0.00,,---,0.00,VWS V14.01,2013-09-27 15:00:00,
2013-09-27 11:04:00,62.1,53.7,30.24,ENE,68,1.0,1.0,74,0.00,,---,0.00,VWS V14.01,2013-09-27 15:04:00,
2013-09-27 11:09:00,62.3,53.5,30.24,NE,38,1.0,1.0,73,0.00,,---,0.00,VWS V14.01,2013-09-27 15:09:00,
2013-09-27 11:14:00,62.6,53.5,30.24,NE,44,1.0,1.0,72,0.00,,---,0.00,VWS V14.01,2013-09-27 15:14:00,
2013-09-27 11:19:00,62.8,53.3,30.24,NE,41,1.0,2.0,71,0.00,,---,0.00,VWS V14.01,2013-09-27 15:19:00,
2013-09-27 11:24:00,63.0,53.1,30.24,NE,50,0.0,2.0,70,0.00,,---,0.00,VWS V14.01,2013-09-27 15:24:00,
2013-09-27 11:29:00,63.5,53.9,30.24,SE,134,1.0,2.0,71,0.00,,---,0.00,VWS V14.01,2013-09-27 15:29:00,
2013-09-27 11:30:00,63.8,53.5,30.24,ESE,110,1.0,2.0,69,0.00,,---,0.00,VWS V14.01,2013-09-27 15:30:00,
2013-09-27 11:34:00,64.0,53.2,30.24,ENE,70,2.0,2.0,68,0.00,,---,0.00,VWS V14.01,2013-09-27 15:34:00,
2013-09-27 11:39:00,64.1,52.9,30.24,NE,42,0.0,2.0,67,0.00,,---,0.00,VWS V14.01,2013-09-27 15:39:00,
2013-09-27 11:44:00,64.2,53.4,30.24,ENE,58,1.0,2.0,68,0.00,,---,0.00,VWS V14.01,2013-09-27 15:44:00,
2013-09-27 11:49:00,64.6,53.0,30.24,ENE,63,0.0,2.0,66,0.00,,---,0.00,VWS V14.01,2013-09-27 15:49:00,
2013-09-27 11:54:00,64.9,53.3,30.24,ENE,61,1.0,2.0,66,0.00,,---,0.00,VWS V14.01,2013-09-27 15:54:00,
2013-09-27 11:59:00,65.1,53.9,30.24,NNE,27,0.0,2.0,67,0.00,,---,0.00,VWS V14.01,2013-09-27 15:59:00,
2013-09-27 12:00:00,65.3,53.2,30.24,NE,43,1.0,2.0,65,0.00,,---,0.00,VWS V14.01,2013-09-27 16:00:00,
2013-09-27 12:04:00,65.5,53.4,30.23,NE,42,1.0,1.0,65,0.00,,---,0.00,VWS V14.01,2013-09-27 16:04:00,
2013-09-27 12:09:00,65.9,53.0,30.24,NE,37,1.0,2.0,63,0.00,,---,0.00,VWS V14.01,2013-09-27 16:09:00,
2013-09-27 12:14:00,66.2,53.2,30.23,ENE,60,1.0,2.0,63,0.00,,---,0.00,VWS V14.01,2013-09-27 16:14:00,
2013-09-27 12:19:00,65.8,52.4,30.23,NE,38,0.0,3.0,62,0.00,,---,0.00,VWS V14.01,2013-09-27 16:19:00,
2013-09-27 12:24:00,65.8,53.3,30.23,ENE,57,1.0,3.0,64,0.00,,---,0.00,VWS V14.01,2013-09-27 16:24:00,
2013-09-27 12:29:00,66.0,53.1,30.23,ENE,78,0.0,3.0,63,0.00,,---,0.00,VWS V14.01,2013-09-27 16:29:00,
2013-09-27 12:30:00,65.9,53.0,30.23,ENE,78,1.0,3.0,63,0.00,,---,0.00,VWS V14.01,2013-09-27 16:30:00,
2013-09-27 12:34:00,66.0,53.9,30.23,ESE,113,1.0,1.0,65,0.00,,---,0.00,VWS V14.01,2013-09-27 16:34:00,
2013-09-27 12:39:00,66.4,53.4,30.23,ENE,78,0.0,1.0,63,0.00,,---,0.00,VWS V14.01,2013-09-27 16:39:00,
2013-09-27 12:44:00,66.7,54.2,30.23,East,96,1.0,1.0,64,0.00,,---,0.00,VWS V14.01,2013-09-27 16:44:00,
2013-09-27 12:49:00,67.0,53.6,30.23,NE,46,0.0,1.0,62,0.00,,---,0.00,VWS V14.01,2013-09-27 16:49:00,
2013-09-27 12:54:00,67.0,53.6,30.23,NE,47,1.0,2.0,62,0.00,,---,0.00,VWS V14.01,2013-09-27 16:54:00,
2013-09-27 12:59:00,66.4,53.4,30.23,NNE,33,2.0,2.0,63,0.00,,---,0.00,VWS V14.01,2013-09-27 16:59:00,
2013-09-27 13:00:00,66.2,52.8,30.23,North,10,1.0,2.0,62,0.00,,---,0.00,VWS V14.01,2013-09-27 17:00:00,
2013-09-27 13:04:00,65.8,53.3,30.23,NNE,12,1.0,1.0,64,0.00,,---,0.00,VWS V14.01,2013-09-27 17:04:00,
2013-09-27 13:09:00,65.5,53.4,30.23,NNE,18,0.0,1.0,65,0.00,,---,0.00,VWS V14.01,2013-09-27 17:09:00,
2013-09-27 13:14:00,65.1,52.2,30.23,NNE,18,1.0,1.0,63,0.00,,---,0.00,VWS V14.01,2013-09-27 17:14:00,
2013-09-27 13:19:00,64.9,52.9,30.23,NNE,18,0.0,1.0,65,0.00,,---,0.00,VWS V14.01,2013-09-27 17:19:00,
2013-09-27 13:24:00,64.8,53.2,30.23,NNE,18,1.0,1.0,66,0.00,,---,0.00,VWS V14.01,2013-09-27 17:24:00,
2013-09-27 13:26:00,64.7,53.5,30.23,NNE,18,0.0,1.0,67,0.00,,---,0.00,VWS V14.01,2013-09-27 17:26:00,
2013-09-27 13:30:00,64.6,53.0,30.22,NNE,32,0.0,1.0,66,0.00,,---,0.00,VWS V14.01,2013-09-27 17:30:00,
2013-09-27 13:31:00,64.6,53.0,30.22,NNE,32,0.0,1.0,66,0.00,,---,0.00,VWS V14.01,2013-09-27 17:31:00,
2013-09-27 13:36:00,64.6,53.4,30.22,NNE,32,0.0,0.0,67,0.00,,---,0.00,VWS V14.01,2013-09-27 17:36:00,
2013-09-27 13:41:00,64.4,53.2,30.22,NNE,32,0.0,0.0,67,0.00,,---,0.00,VWS V14.01,2013-09-27 17:41:00,
2013-09-27 13:46:00,64.4,53.6,30.22,NNE,32,0.0,1.0,68,0.00,,---,0.00,VWS V14.01,2013-09-27 17:46:00,
2013-09-27 13:51:00,64.3,53.5,30.22,NNE,32,0.0,1.0,68,0.00,,---,0.00,VWS V14.01,2013-09-27 17:51:00,
2013-09-27 13:56:00,64.3,53.1,30.22,NNE,32,0.0,1.0,67,0.00,,---,0.00,VWS V14.01,2013-09-27 17:56:00,
2013-09-27 14:00:00,64.4,52.8,30.22,NNE,31,0.0,1.0,66,0.00,,---,0.00,VWS V14.01,2013-09-27 18:00:00,
2013-09-27 14:01:00,64.4,52.8,30.22,NNE,32,0.0,1.0,66,0.00,,---,0.00,VWS V14.01,2013-09-27 18:01:00,
2013-09-27 14:06:00,64.5,52.9,30.22,NNE,32,0.0,1.0,66,0.00,,---,0.00,VWS V14.01,2013-09-27 18:06:00,
2013-09-27 14:11:00,64.5,52.9,30.22,NNE,30,0.0,1.0,66,0.00,,---,0.00,VWS V14.01,2013-09-27 18:11:00,
2013-09-27 14:16:00,64.6,53.0,30.21,NNE,28,1.0,2.0,66,0.00,,---,0.00,VWS V14.01,2013-09-27 18:16:00,
2013-09-27 14:21:00,64.6,53.4,30.21,NNE,28,1.0,2.0,67,0.00,,---,0.00,VWS V14.01,2013-09-27 18:21:00,
2013-09-27 14:26:00,64.6,53.0,30.21,NNE,29,1.0,2.0,66,0.00,,---,0.00,VWS V14.01,2013-09-27 18:26:00,
2013-09-27 14:30:00,64.5,53.3,30.21,NNE,30,0.0,2.0,67,0.00,,---,0.00,VWS V14.01,2013-09-27 18:30:00,
2013-09-27 14:31:00,64.5,53.3,30.21,NNE,30,0.0,2.0,67,0.00,,---,0.00,VWS V14.01,2013-09-27 18:31:00,
2013-09-27 14:36:00,64.4,52.4,30.21,NNE,25,0.0,1.0,65,0.00,,---,0.00,VWS V14.01,2013-09-27 18:36:00,
2013-09-27 14:41:00,64.4,53.2,30.21,NNE,25,0.0,1.0,67,0.00,,---,0.00,VWS V14.01,2013-09-27 18:41:00,
2013-09-27 14:46:00,64.5,53.3,30.21,NNE,25,0.0,1.0,67,0.00,,---,0.00,VWS V14.01,2013-09-27 18:46:00,
2013-09-27 14:51:00,64.6,53.4,30.21,NNE,24,1.0,1.0,67,0.00,,---,0.00,VWS V14.01,2013-09-27 18:51:00,
2013-09-27 14:56:00,64.6,53.4,30.21,NNE,25,0.0,1.0,67,0.00,,---,0.00,VWS V14.01,2013-09-27 18:56:00,
2013-09-27 15:00:00,64.6,53.0,30.21,NNE,24,0.0,1.0,66,0.00,,---,0.00,VWS V14.01,2013-09-27 19:00:00,
2013-09-27 15:01:00,64.6,53.0,30.21,NNE,25,0.0,0.0,66,0.00,,---,0.00,VWS V14.01,2013-09-27 19:01:00,
2013-09-27 15:06:00,64.6,53.8,30.21,NNE,25,0.0,1.0,68,0.00,,---,0.00,VWS V14.01,2013-09-27 19:06:00,
2013-09-27 15:11:00,64.5,53.3,30.21,NNE,25,0.0,1.0,67,0.00,,---,0.00,VWS V14.01,2013-09-27 19:11:00,
2013-09-27 15:16:00,64.6,54.2,30.21,NNE,25,0.0,1.0,69,0.00,,---,0.00,VWS V14.01,2013-09-27 19:16:00,
2013-09-27 15:21:00,64.6,53.4,30.21,NNE,24,0.0,1.0,67,0.00,,---,0.00,VWS V14.01,2013-09-27 19:21:00,
2013-09-27 15:26:00,64.8,53.6,30.21,NNE,25,0.0,1.0,67,0.00,,---,0.00,VWS V14.01,2013-09-27 19:26:00,
2013-09-27 15:30:00,64.9,53.3,30.21,NNE,25,0.0,1.0,66,0.00,,---,0.00,VWS V14.01,2013-09-27 19:30:00,
2013-09-27 15:31:00,64.9,53.3,30.21,NNE,25,0.0,1.0,66,0.00,,---,0.00,VWS V14.01,2013-09-27 19:31:00,
2013-09-27 15:36:00,64.9,53.7,30.21,NNE,24,0.0,0.0,67,0.00,,---,0.00,VWS V14.01,2013-09-27 19:36:00,
2013-09-27 15:41:00,64.7,53.9,30.21,NNE,23,0.0,0.0,68,0.00,,---,0.00,VWS V14.01,2013-09-27 19:41:00,
2013-09-27 15:46:00,64.6,53.0,30.21,NNE,25,0.0,0.0,66,0.00,,---,0.00,VWS V14.01,2013-09-27 19:46:00,
2013-09-27 15:51:00,64.6,53.8,30.21,NNE,25,0.0,0.0,68,0.00,,---,0.00,VWS V14.01,2013-09-27 19:51:00,
2013-09-27 15:56:00,64.5,53.7,30.21,NNE,25,0.0,0.0,68,0.00,,---,0.00,VWS V14.01,2013-09-27 19:56:00,
2013-09-27 16:00:00,64.5,54.1,30.21,NNE,24,0.0,0.0,69,0.00,,---,0.00,VWS V14.01,2013-09-27 20:00:00,
2013-09-27 16:01:00,64.5,54.1,30.21,NNE,24,0.0,0.0,69,0.00,,---,0.00,VWS V14.01,2013-09-27 20:01:00,
2013-09-27 16:06:00,64.4,54.0,30.21,NNE,25,0.0,0.0,69,0.00,,---,0.00,VWS V14.01,2013-09-27 20:06:00,
2013-09-27 16:11:00,64.4,54.4,30.21,NNE,25,0.0,0.0,70,0.00,,---,0.00,VWS V14.01,2013-09-27 20:11:00,
2013-09-27 16:16:00,64.3,54.3,30.21,NNE,25,0.0,0.0,70,0.00,,---,0.00,VWS V14.01,2013-09-27 20:16:00,
2013-09-27 16:21:00,64.3,54.7,30.21,NNE,25,0.0,0.0,71,0.00,,---,0.00,VWS V14.01,2013-09-27 20:21:00,
2013-09-27 16:26:00,64.2,54.2,30.21,NNE,25,0.0,0.0,70,0.00,,---,0.00,VWS V14.01,2013-09-27 20:26:00,
2013-09-27 16:30:00,64.1,54.1,30.21,NNE,25,0.0,0.0,70,0.00,,---,0.00,VWS V14.01,2013-09-27 20:30:00,
2013-09-27 16:31:00,64.1,54.1,30.21,NNE,25,0.0,0.0,70,0.00,,---,0.00,VWS V14.01,2013-09-27 20:31:00,
2013-09-27 16:36:00,64.1,54.5,30.21,NNE,25,0.0,0.0,71,0.00,,---,0.00,VWS V14.01,2013-09-27 20:36:00,
2013-09-27 16:41:00,64.1,54.1,30.21,NNE,25,0.0,0.0,70,0.00,,---,0.00,VWS V14.01,2013-09-27 20:41:00,
2013-09-27 16:46:00,64.1,54.1,30.21,NNE,25,0.0,0.0,70,0.00,,---,0.00,VWS V14.01,2013-09-27 20:46:00,
2013-09-27 16:51:00,64.0,54.0,30.21,NNE,25,0.0,0.0,70,0.00,,---,0.00,VWS V14.01,2013-09-27 20:51:00,
2013-09-27 16:56:00,64.1,54.9,30.21,NNE,25,0.0,0.0,72,0.00,,---,0.00,VWS V14.01,2013-09-27 20:56:00,
2013-09-27 17:00:00,64.1,54.5,30.21,NNE,25,0.0,0.0,71,0.00,,---,0.00,VWS V14.01,2013-09-27 21:00:00,
2013-09-27 17:01:00,64.1,54.5,30.21,NNE,25,0.0,0.0,71,0.00,,---,0.00,VWS V14.01,2013-09-27 21:01:00,
2013-09-27 17:06:00,64.5,54.5,30.21,NE,44,0.0,0.0,70,0.00,,---,0.00,VWS V14.01,2013-09-27 21:06:00,
2013-09-27 17:11:00,65.0,54.6,30.21,NE,44,0.0,0.0,69,0.00,,---,0.00,VWS V14.01,2013-09-27 21:11:00,
2013-09-27 17:16:00,65.0,54.6,30.21,NE,44,0.0,0.0,69,0.00,,---,0.00,VWS V14.01,2013-09-27 21:16:00,
2013-09-27 17:21:00,65.0,54.6,30.22,NE,44,0.0,0.0,69,0.00,,---,0.00,VWS V14.01,2013-09-27 21:21:00,
2013-09-27 17:26:00,65.0,54.6,30.22,NE,46,0.0,0.0,69,0.00,,---,0.00,VWS V14.01,2013-09-27 21:26:00,
2013-09-27 17:30:00,64.7,53.9,30.22,ENE,60,0.0,0.0,68,0.00,,---,0.00,VWS V14.01,2013-09-27 21:30:00,
2013-09-27 17:31:00,64.7,53.9,30.22,ENE,60,0.0,0.0,68,0.00,,---,0.00,VWS V14.01,2013-09-27 21:31:00,
2013-09-27 17:36:00,64.3,54.3,30.22,ENE,59,0.0,0.0,70,0.00,,---,0.00,VWS V14.01,2013-09-27 21:36:00,
2013-09-27 17:41:00,64.1,54.5,30.22,ENE,59,0.0,0.0,71,0.00,,---,0.00,VWS V14.01,2013-09-27 21:41:00,
2013-09-27 17:46:00,63.9,54.3,30.22,ENE,59,0.0,0.0,71,0.00,,---,0.00,VWS V14.01,2013-09-27 21:46:00,
2013-09-27 17:51:00,63.7,54.1,30.22,ENE,60,0.0,0.0,71,0.00,,---,0.00,VWS V14.01,2013-09-27 21:51:00,
2013-09-27 17:56:00,63.6,54.4,30.22,ENE,60,0.0,0.0,72,0.00,,---,0.00,VWS V14.01,2013-09-27 21:56:00,
2013-09-27 18:00:00,63.4,54.6,30.22,ENE,60,0.0,0.0,73,0.00,,---,0.00,VWS V14.01,2013-09-27 22:00:00,
2013-09-27 18:01:00,63.4,54.6,30.22,ENE,59,0.0,0.0,73,0.00,,---,0.00,VWS V14.01,2013-09-27 22:01:00,
2013-09-27 18:06:00,63.3,54.1,30.22,ENE,60,0.0,0.0,72,0.00,,---,0.00,VWS V14.01,2013-09-27 22:06:00,
2013-09-27 18:11:00,63.2,54.4,30.22,ENE,60,0.0,0.0,73,0.00,,---,0.00,VWS V14.01,2013-09-27 22:11:00,
2013-09-27 18:16:00,63.1,54.3,30.22,ENE,60,0.0,0.0,73,0.00,,---,0.00,VWS V14.01,2013-09-27 22:16:00,
2013-09-27 18:21:00,63.0,54.6,30.23,ENE,60,0.0,0.0,74,0.00,,---,0.00,VWS V14.01,2013-09-27 22:21:00,
2013-09-27 18:26:00,62.9,54.9,30.23,ENE,60,0.0,0.0,75,0.00,,---,0.00,VWS V14.01,2013-09-27 22:26:00,
2013-09-27 18:30:00,62.7,55.4,30.23,ENE,60,0.0,0.0,77,0.00,,---,0.00,VWS V14.01,2013-09-27 22:30:00,
2013-09-27 18:31:00,62.7,55.4,30.23,ENE,59,0.0,0.0,77,0.00,,---,0.00,VWS V14.01,2013-09-27 22:31:00,
2013-09-27 18:36:00,62.5,55.2,30.23,ENE,60,0.0,0.0,77,0.00,,---,0.00,VWS V14.01,2013-09-27 22:36:00,
2013-09-27 18:41:00,62.2,55.3,30.23,ENE,59,0.0,0.0,78,0.00,,---,0.00,VWS V14.01,2013-09-27 22:41:00,
2013-09-27 18:46:00,62.1,55.2,30.23,ENE,60,0.0,0.0,78,0.00,,---,0.00,VWS V14.01,2013-09-27 22:46:00,
2013-09-27 18:51:00,61.9,55.3,30.23,ENE,59,0.0,0.0,79,0.00,,---,0.00,VWS V14.01,2013-09-27 22:51:00,
2013-09-27 18:56:00,61.7,54.8,30.23,ENE,59,0.0,0.0,78,0.00,,---,0.00,VWS V14.01,2013-09-27 22:56:00,
2013-09-27 19:00:00,61.6,55.4,30.23,ENE,60,0.0,0.0,80,0.00,,---,0.00,VWS V14.01,2013-09-27 23:00:00,
2013-09-27 19:01:00,61.6,55.4,30.23,ENE,59,0.0,0.0,80,0.00,,---,0.00,VWS V14.01,2013-09-27 23:01:00,
2013-09-27 19:06:00,61.4,55.5,30.23,ENE,60,0.0,0.0,81,0.00,,---,0.00,VWS V14.01,2013-09-27 23:06:00,
2013-09-27 19:11:00,61.2,55.7,30.23,ENE,60,0.0,0.0,82,0.00,,---,0.00,VWS V14.01,2013-09-27 23:11:00,
2013-09-27 19:16:00,61.1,55.6,30.24,ENE,60,0.0,0.0,82,0.00,,---,0.00,VWS V14.01,2013-09-27 23:16:00,
2013-09-27 19:21:00,61.0,55.8,30.24,ENE,60,0.0,0.0,83,0.00,,---,0.00,VWS V14.01,2013-09-27 23:21:00,
2013-09-27 19:26:00,60.8,55.9,30.24,ENE,60,0.0,0.0,84,0.00,,---,0.00,VWS V14.01,2013-09-27 23:26:00,
2013-09-27 19:30:00,60.7,55.8,30.24,ENE,59,0.0,0.0,84,0.00,,---,0.00,VWS V14.01,2013-09-27 23:30:00,
2013-09-27 19:31:00,60.7,55.8,30.24,ENE,60,0.0,0.0,84,0.00,,---,0.00,VWS V14.01,2013-09-27 23:31:00,
2013-09-27 19:36:00,60.5,56.0,30.24,ENE,60,0.0,0.0,85,0.00,,---,0.00,VWS V14.01,2013-09-27 23:36:00,
2013-09-27 19:41:00,60.3,56.1,30.24,ENE,59,0.0,0.0,86,0.00,,---,0.00,VWS V14.01,2013-09-27 23:41:00,
2013-09-27 19:46:00,60.2,56.0,30.24,ENE,60,0.0,0.0,86,0.00,,---,0.00,VWS V14.01,2013-09-27 23:46:00,
2013-09-27 19:51:00,60.1,55.9,30.25,ENE,59,0.0,0.0,86,0.00,,---,0.00,VWS V14.01,2013-09-27 23:51:00,
2013-09-27 19:56:00,60.0,55.8,30.25,ENE,60,0.0,0.0,86,0.00,,---,0.00,VWS V14.01,2013-09-27 23:56:00,
2013-09-27 20:00:00,60.0,55.8,30.24,ENE,60,0.0,0.0,86,0.00,,---,0.00,VWS V14.01,2013-09-28 00:00:00,
2013-09-27 20:01:00,60.0,55.8,30.24,ENE,60,0.0,0.0,86,0.00,,---,0.00,VWS V14.01,2013-09-28 00:01:00,
2013-09-27 20:06:00,59.9,56.0,30.25,ENE,59,0.0,0.0,87,0.00,,---,0.00,VWS V14.01,2013-09-28 00:06:00,
2013-09-27 20:11:00,59.9,55.7,30.25,ENE,59,0.0,0.0,86,0.00,,---,0.00,VWS V14.01,2013-09-28 00:11:00,
2013-09-27 20:16:00,59.9,56.0,30.25,ENE,59,0.0,0.0,87,0.00,,---,0.00,VWS V14.01,2013-09-28 00:16:00,
2013-09-27 20:21:00,59.9,56.0,30.25,ENE,59,0.0,0.0,87,0.00,,---,0.00,VWS V14.01,2013-09-28 00:21:00,
2013-09-27 20:26:00,59.8,55.9,30.25,ENE,59,0.0,0.0,87,0.00,,---,0.00,VWS V14.01,2013-09-28 00:26:00,
2013-09-27 20:30:00,59.9,56.0,30.25,ENE,59,0.0,0.0,87,0.00,,---,0.00,VWS V14.01,2013-09-28 00:30:00,
2013-09-27 20:31:00,59.9,56.0,30.25,ENE,60,0.0,0.0,87,0.00,,---,0.00,VWS V14.01,2013-09-28 00:31:00,
2013-09-27 20:36:00,59.8,55.9,30.25,ENE,59,0.0,0.0,87,0.00,,---,0.00,VWS V14.01,2013-09-28 00:36:00,
2013-09-27 20:41:00,59.8,55.9,30.25,ENE,59,0.0,0.0,87,0.00,,---,0.00,VWS V14.01,2013-09-28 00:41:00,
2013-09-27 20:46:00,59.8,55.9,30.25,ENE,60,0.0,0.0,87,0.00,,---,0.00,VWS V14.01,2013-09-28 00:46:00,
2013-09-27 20:51:00,59.7,55.8,30.25,ENE,60,0.0,0.0,87,0.00,,---,0.00,VWS V14.01,2013-09-28 00:51:00,
2013-09-27 20:56:00,59.7,55.8,30.25,ENE,60,0.0,0.0,87,0.00,,---,0.00,VWS V14.01,2013-09-28 00:56:00,
2013-09-27 21:00:00,59.6,55.7,30.26,ENE,59,0.0,0.0,87,0.00,,---,0.00,VWS V14.01,2013-09-28 01:00:00,
2013-09-27 21:01:00,59.6,55.7,30.26,ENE,60,0.0,0.0,87,0.00,,---,0.00,VWS V14.01,2013-09-28 01:01:00,
2013-09-27 21:06:00,59.6,55.7,30.26,ENE,60,0.0,0.0,87,0.00,,---,0.00,VWS V14.01,2013-09-28 01:06:00,
2013-09-27 21:11:00,59.6,56.0,30.26,ENE,60,0.0,0.0,88,0.00,,---,0.00,VWS V14.01,2013-09-28 01:11:00,
2013-09-27 21:16:00,59.5,56.0,30.26,ENE,60,0.0,0.0,88,0.00,,---,0.00,VWS V14.01,2013-09-28 01:16:00,
2013-09-27 21:21:00,59.6,56.0,30.26,ENE,59,0.0,0.0,88,0.00,,---,0.00,VWS V14.01,2013-09-28 01:21:00,
2013-09-27 21:26:00,59.5,56.0,30.26,ENE,59,0.0,0.0,88,0.00,,---,0.00,VWS V14.01,2013-09-28 01:26:00,
2013-09-27 21:30:00,59.5,56.0,30.26,ENE,60,0.0,0.0,88,0.00,,---,0.00,VWS V14.01,2013-09-28 01:30:00,
2013-09-27 21:31:00,59.5,56.0,30.26,ENE,60,0.0,0.0,88,0.00,,---,0.00,VWS V14.01,2013-09-28 01:31:00,
2013-09-27 21:36:00,59.3,55.8,30.26,ENE,59,0.0,0.0,88,0.00,,---,0.00,VWS V14.01,2013-09-28 01:36:00,
2013-09-27 21:41:00,59.2,56.0,30.26,ENE,60,0.0,0.0,89,0.00,,---,0.00,VWS V14.01,2013-09-28 01:41:00,
2013-09-27 21:46:00,59.1,55.9,30.26,ENE,59,0.0,0.0,89,0.00,,---,0.00,VWS V14.01,2013-09-28 01:46:00,
2013-09-27 21:51:00,59.0,55.8,30.27,ENE,60,0.0,0.0,89,0.00,,---,0.00,VWS V14.01,2013-09-28 01:51:00,
2013-09-27 21:56:00,59.0,55.8,30.27,ENE,59,0.0,0.0,89,0.00,,---,0.00,VWS V14.01,2013-09-28 01:56:00,
2013-09-27 22:00:00,59.0,55.8,30.27,ENE,59,0.0,0.0,89,0.00,,---,0.00,VWS V14.01,2013-09-28 02:00:00,
2013-09-27 22:01:00,58.9,55.7,30.27,ENE,59,0.0,0.0,89,0.00,,---,0.00,VWS V14.01,2013-09-28 02:01:00,
2013-09-27 22:06:00,58.9,56.0,30.27,ENE,60,0.0,0.0,90,0.00,,---,0.00,VWS V14.01,2013-09-28 02:06:00,
2013-09-27 22:11:00,58.9,56.0,30.27,ENE,60,0.0,0.0,90,0.00,,---,0.00,VWS V14.01,2013-09-28 02:11:00,
2013-09-27 22:16:00,58.8,55.9,30.28,ENE,59,0.0,0.0,90,0.00,,---,0.00,VWS V14.01,2013-09-28 02:16:00,
2013-09-27 22:21:00,58.8,55.9,30.28,ENE,60,0.0,0.0,90,0.00,,---,0.00,VWS V14.01,2013-09-28 02:21:00,
2013-09-27 22:26:00,58.7,55.8,30.28,ENE,60,0.0,0.0,90,0.00,,---,0.00,VWS V14.01,2013-09-28 02:26:00,
2013-09-27 22:30:00,58.6,55.7,30.28,ENE,60,0.0,0.0,90,0.00,,---,0.00,VWS V14.01,2013-09-28 02:30:00,
2013-09-27 22:31:00,58.6,55.7,30.28,ENE,60,0.0,0.0,90,0.00,,---,0.00,VWS V14.01,2013-09-28 02:31:00,
2013-09-27 22:36:00,58.6,55.7,30.28,ENE,59,0.0,0.0,90,0.00,,---,0.00,VWS V14.01,2013-09-28 02:36:00,
2013-09-27 22:41:00,58.6,55.7,30.28,ENE,59,0.0,0.0,90,0.00,,---,0.00,VWS V14.01,2013-09-28 02:41:00,
2013-09-27 22:46:00,58.6,55.7,30.28,ENE,60,0.0,0.0,90,0.00,,---,0.00,VWS V14.01,2013-09-28 02:46:00,
2013-09-27 22:51:00,58.6,55.7,30.28,ENE,59,0.0,0.0,90,0.00,,---,0.00,VWS V14.01,2013-09-28 02:51:00,
2013-09-27 22:56:00,58.6,55.7,30.28,ENE,60,0.0,0.0,90,0.00,,---,0.00,VWS V14.01,2013-09-28 02:56:00,
2013-09-27 23:00:00,58.5,55.3,30.27,ENE,60,0.0,0.0,89,0.00,,---,0.00,VWS V14.01,2013-09-28 03:00:00,
2013-09-27 23:01:00,58.5,55.3,30.27,ENE,60,0.0,0.0,89,0.00,,---,0.00,VWS V14.01,2013-09-28 03:01:00,
2013-09-27 23:06:00,58.5,55.6,30.27,ENE,59,0.0,0.0,90,0.00,,---,0.00,VWS V14.01,2013-09-28 03:06:00,
2013-09-27 23:11:00,58.5,55.6,30.28,ENE,59,0.0,0.0,90,0.00,,---,0.00,VWS V14.01,2013-09-28 03:11:00,
2013-09-27 23:16:00,58.3,55.4,30.28,ENE,59,0.0,0.0,90,0.00,,---,0.00,VWS V14.01,2013-09-28 03:16:00,
2013-09-27 23:21:00,58.1,55.2,30.28,ENE,60,0.0,0.0,90,0.00,,---,0.00,VWS V14.01,2013-09-28 03:21:00,
2013-09-27 23:26:00,58.0,55.4,30.28,ENE,59,0.0,0.0,91,0.00,,---,0.00,VWS V14.01,2013-09-28 03:26:00,
2013-09-27 23:30:00,57.8,55.2,30.28,ENE,60,0.0,0.0,91,0.00,,---,0.00,VWS V14.01,2013-09-28 03:30:00,
2013-09-27 23:31:00,57.8,55.2,30.29,ENE,60,0.0,0.0,91,0.00,,---,0.00,VWS V14.01,2013-09-28 03:31:00,
2013-09-27 23:36:00,57.7,55.1,30.28,ENE,60,0.0,0.0,91,0.00,,---,0.00,VWS V14.01,2013-09-28 03:36:00,
2013-09-27 23:41:00,57.6,54.7,30.29,ENE,60,0.0,0.0,90,0.00,,---,0.00,VWS V14.01,2013-09-28 03:41:00,
2013-09-27 23:46:00,57.5,54.6,30.29,ENE,60,0.0,0.0,90,0.00,,---,0.00,VWS V14.01,2013-09-28 03:46:00,
2013-09-27 23:51:00,57.5,54.6,30.28,ENE,60,0.0,0.0,90,0.00,,---,0.00,VWS V14.01,2013-09-28 03:51:00,
2013-09-27 23:56:00,57.5,54.6,30.28,ENE,60,0.0,0.0,90,0.00,,---,0.00,VWS V14.01,2013-09-28 03:56:00,